Current Weather

Mors Muni - JR Washburn Field

Mors Muni - JR Washburn Field, Illinois (KC09)

Report from: Thursday, August 18, 2022 10:55 PM CDT
Current time: Thursday, August 18, 2022 11:43 PM CDT

Nearby weather
Weather history
Weather forecast

Temperature17.8°C (64.0°F)
Dew point17.8°C (64.0°F)
Winds Calm
Visibility10 mi. (16.1 km)
Clouds Sky clear
Altimeter29.94 in.Hg (1014 mB)
Relative humidity100 %
Density altitude586 ft. (179 m)
Remarks Fully automated report
Automated weather observing station with precipitation discriminator
Flight conditions Visual Meteorological Conditions
Raw dataKC09 190355Z AUTO 00000KT 10SM CLR 18/18 A2994 RMK AO2 T01780178
An unhandled exception has occurred. See browser dev tools for details. Reload 🗙